KLZZ

Lampasas Airport

Lampasas, Texas, USA
METAR KLZZ 122055Z AUTO 22008KT 10SM CLR 17/11 A2987 RMK AO2 T01700113
Observed Flight Rules
Dec-12 @ 20:55 UTC (14 minutes ago) Visual Flight Rules
Wind Visibility Clouds
220° at 8 knots 10 miles
  • Clear skies
Temperatures Readings
Current 17°C / 63°F
Dewpoint 11°C / 52°F
Humidity 68%
Altimeter 29.87" Hg
Pressure 1012 hPa
Elevation 371
METAR KLZZ 122055Z AUTO 22008KT 10SM CLR 17/11 A2987 RMK AO2 T01700113
Observed Flight Rules
Dec-12 @ 20:55 UTC
(14 minutes ago)
VFR
Wind Visibility
220° at 8 knots 10 miles
Clouds
  • Clear skies
Temperature Dewpoint
17°C / 63°F 11°C / 52°F
Humidity Altimeter Pressure
68% 29.87" Hg 1012 hPa